sensor_id;sensor_type;location;lat;lon;timestamp;temperature;humidity
32107;DHT22;18622;51.998;10.440;2022-07-22T02:17:45;19.30;91.80
32107;DHT22;18622;51.998;10.440;2022-07-22T02:20:13;19.30;92.20
32107;DHT22;18622;51.998;10.440;2022-07-22T02:22:41;19.30;92.10
32107;DHT22;18622;51.998;10.440;2022-07-22T02:25:09;19.20;92.00
32107;DHT22;18622;51.998;10.440;2022-07-22T02:27:37;19.10;92.30
32107;DHT22;18622;51.998;10.440;2022-07-22T02:30:05;19.10;92.40
32107;DHT22;18622;51.998;10.440;2022-07-22T02:32:33;19.10;92.40
32107;DHT22;18622;51.998;10.440;2022-07-22T02:35:01;19.10;92.30
32107;DHT22;18622;51.998;10.440;2022-07-22T02:37:29;19.10;92.40
32107;DHT22;18622;51.998;10.440;2022-07-22T02:39:57;19.20;92.50
32107;DHT22;18622;51.998;10.440;2022-07-22T02:42:24;19.20;92.60
32107;DHT22;18622;51.998;10.440;2022-07-22T02:44:52;19.20;92.60
32107;DHT22;18622;51.998;10.440;2022-07-22T02:47:20;19.30;92.70
32107;DHT22;18622;51.998;10.440;2022-07-22T02:49:48;19.40;92.70
32107;DHT22;18622;51.998;10.440;2022-07-22T02:52:16;19.50;92.60
32107;DHT22;18622;51.998;10.440;2022-07-22T02:54:43;19.50;92.50
32107;DHT22;18622;51.998;10.440;2022-07-22T02:57:11;19.60;92.40
32107;DHT22;18622;51.998;10.440;2022-07-22T02:59:39;19.70;92.30
32107;DHT22;18622;51.998;10.440;2022-07-22T03:30:13;19.40;93.90
32107;DHT22;18622;51.998;10.440;2022-07-22T03:32:41;19.40;93.90
32107;DHT22;18622;51.998;10.440;2022-07-22T03:35:16;19.50;93.80
32107;DHT22;18622;51.998;10.440;2022-07-22T03:37:41;19.50;93.60
32107;DHT22;18622;51.998;10.440;2022-07-22T03:40:09;19.60;93.50
32107;DHT22;18622;51.998;10.440;2022-07-22T03:42:37;19.60;93.50
32107;DHT22;18622;51.998;10.440;2022-07-22T03:45:05;19.70;93.50
32107;DHT22;18622;51.998;10.440;2022-07-22T03:47:33;19.80;93.40
32107;DHT22;18622;51.998;10.440;2022-07-22T03:50:01;19.80;93.30
32107;DHT22;18622;51.998;10.440;2022-07-22T03:52:29;19.80;93.40
32107;DHT22;18622;51.998;10.440;2022-07-22T03:54:57;19.80;93.30
32107;DHT22;18622;51.998;10.440;2022-07-22T03:57:25;19.80;93.30
32107;DHT22;18622;51.998;10.440;2022-07-22T03:59:54;19.80;93.30
32107;DHT22;18622;51.998;10.440;2022-07-22T04:02:22;19.90;93.30
32107;DHT22;18622;51.998;10.440;2022-07-22T04:04:50;20.00;93.30
32107;DHT22;18622;51.998;10.440;2022-07-22T04:07:18;19.90;93.20
32107;DHT22;18622;51.998;10.440;2022-07-22T04:09:45;19.80;93.30
32107;DHT22;18622;51.998;10.440;2022-07-22T04:12:13;19.80;93.50
32107;DHT22;18622;51.998;10.440;2022-07-22T04:14:41;19.80;93.50
32107;DHT22;18622;51.998;10.440;2022-07-22T04:17:09;19.90;93.60
32107;DHT22;18622;51.998;10.440;2022-07-22T04:19:37;19.90;93.40
32107;DHT22;18622;51.998;10.440;2022-07-22T04:22:05;19.90;93.40
32107;DHT22;18622;51.998;10.440;2022-07-22T04:24:32;19.80;93.70
32107;DHT22;18622;51.998;10.440;2022-07-22T04:27:00;19.70;94.00
32107;DHT22;18622;51.998;10.440;2022-07-22T04:29:28;19.50;94.40
32107;DHT22;18622;51.998;10.440;2022-07-22T04:31:56;19.40;94.80
32107;DHT22;18622;51.998;10.440;2022-07-22T04:34:24;19.30;95.20
32107;DHT22;18622;51.998;10.440;2022-07-22T04:36:51;19.20;95.20
32107;DHT22;18622;51.998;10.440;2022-07-22T04:39:19;19.10;95.50
32107;DHT22;18622;51.998;10.440;2022-07-22T04:41:47;19.00;95.50
32107;DHT22;18622;51.998;10.440;2022-07-22T04:44:15;19.00;95.70
32107;DHT22;18622;51.998;10.440;2022-07-22T04:46:42;19.00;95.80
32107;DHT22;18622;51.998;10.440;2022-07-22T04:49:10;18.90;95.90
32107;DHT22;18622;51.998;10.440;2022-07-22T04:51:38;18.90;96.00
32107;DHT22;18622;51.998;10.440;2022-07-22T04:54:06;18.80;96.10
32107;DHT22;18622;51.998;10.440;2022-07-22T04:56:34;18.80;96.30
32107;DHT22;18622;51.998;10.440;2022-07-22T04:59:01;18.70;96.30
32107;DHT22;18622;51.998;10.440;2022-07-22T05:01:29;18.70;96.30
32107;DHT22;18622;51.998;10.440;2022-07-22T05:03:57;18.60;96.30
32107;DHT22;18622;51.998;10.440;2022-07-22T05:06:25;18.60;96.30
32107;DHT22;18622;51.998;10.440;2022-07-22T05:08:53;18.60;96.40
32107;DHT22;18622;51.998;10.440;2022-07-22T05:11:20;18.60;96.30
32107;DHT22;18622;51.998;10.440;2022-07-22T05:13:48;18.70;96.30
32107;DHT22;18622;51.998;10.440;2022-07-22T09:04:23;24.10;74.20
32107;DHT22;18622;51.998;10.440;2022-07-22T09:06:51;24.10;74.30
32107;DHT22;18622;51.998;10.440;2022-07-22T09:09:29;24.40;74.30
32107;DHT22;18622;51.998;10.440;2022-07-22T09:11:50;24.60;72.60
32107;DHT22;18622;51.998;10.440;2022-07-22T09:14:19;24.50;71.90
32107;DHT22;18622;51.998;10.440;2022-07-22T09:16:48;24.30;72.40
32107;DHT22;18622;51.998;10.440;2022-07-22T09:19:15;24.30;72.80
32107;DHT22;18622;51.998;10.440;2022-07-22T09:21:45;24.50;73.60
32107;DHT22;18622;51.998;10.440;2022-07-22T09:24:35;25.00;72.70
32107;DHT22;18622;51.998;10.440;2022-07-22T09:27:00;25.40;70.90
32107;DHT22;18622;51.998;10.440;2022-07-22T09:29:28;25.50;69.70
32107;DHT22;18622;51.998;10.440;2022-07-22T09:31:55;26.00;68.40
32107;DHT22;18622;51.998;10.440;2022-07-22T09:34:30;26.30;67.10
32107;DHT22;18622;51.998;10.440;2022-07-22T09:37:01;26.40;65.60
32107;DHT22;18622;51.998;10.440;2022-07-22T09:39:30;26.30;65.40
32107;DHT22;18622;51.998;10.440;2022-07-22T09:41:59;26.00;65.70
32107;DHT22;18622;51.998;10.440;2022-07-22T09:44:27;26.20;65.30
32107;DHT22;18622;51.998;10.440;2022-07-22T09:46:55;26.90;65.70
32107;DHT22;18622;51.998;10.440;2022-07-22T09:49:37;27.90;63.20
32107;DHT22;18622;51.998;10.440;2022-07-22T09:52:06;28.20;60.10
32107;DHT22;18622;51.998;10.440;2022-07-22T09:54:34;28.20;60.10
32107;DHT22;18622;51.998;10.440;2022-07-22T09:57:02;28.20;59.90
32107;DHT22;18622;51.998;10.440;2022-07-22T09:59:30;27.90;59.80
32107;DHT22;18622;51.998;10.440;2022-07-22T10:01:59;27.40;60.90
32107;DHT22;18622;51.998;10.440;2022-07-22T10:04:30;26.90;62.00
32107;DHT22;18622;51.998;10.440;2022-07-22T10:06:59;26.30;63.40
32107;DHT22;18622;51.998;10.440;2022-07-22T10:09:27;25.90;64.50
32107;DHT22;18622;51.998;10.440;2022-07-22T10:11:55;25.70;65.30
32107;DHT22;18622;51.998;10.440;2022-07-22T10:14:24;25.30;65.50
32107;DHT22;18622;51.998;10.440;2022-07-22T10:16:53;25.00;66.00
32107;DHT22;18622;51.998;10.440;2022-07-22T10:19:21;24.70;67.50
32107;DHT22;18622;51.998;10.440;2022-07-22T10:21:49;24.70;68.00
32107;DHT22;18622;51.998;10.440;2022-07-22T10:24:17;24.80;68.30
32107;DHT22;18622;51.998;10.440;2022-07-22T10:26:50;25.00;67.50
32107;DHT22;18622;51.998;10.440;2022-07-22T10:29:41;25.20;67.60
32107;DHT22;18622;51.998;10.440;2022-07-22T10:37:41;25.60;65.30
32107;DHT22;18622;51.998;10.440;2022-07-22T10:40:25;25.40;66.00
32107;DHT22;18622;51.998;10.440;2022-07-22T10:43:04;25.20;65.90
32107;DHT22;18622;51.998;10.440;2022-07-22T10:48:20;24.70;67.60
32107;DHT22;18622;51.998;10.440;2022-07-22T10:50:51;24.60;67.30
32107;DHT22;18622;51.998;10.440;2022-07-22T10:53:38;24.70;66.90
32107;DHT22;18622;51.998;10.440;2022-07-22T10:56:07;24.60;67.60
32107;DHT22;18622;51.998;10.440;2022-07-22T10:58:39;24.40;68.30
32107;DHT22;18622;51.998;10.440;2022-07-22T12:34:09;27.70;56.80
32107;DHT22;18622;51.998;10.440;2022-07-22T12:36:37;27.30;57.60
32107;DHT22;18622;51.998;10.440;2022-07-22T12:39:18;27.00;58.70
32107;DHT22;18622;51.998;10.440;2022-07-22T12:41:49;26.80;59.40
32107;DHT22;18622;51.998;10.440;2022-07-22T12:44:22;26.70;60.10
32107;DHT22;18622;51.998;10.440;2022-07-22T12:46:52;26.50;60.20
32107;DHT22;18622;51.998;10.440;2022-07-22T12:49:23;26.30;60.50
32107;DHT22;18622;51.998;10.440;2022-07-22T12:52:12;26.30;61.50
32107;DHT22;18622;51.998;10.440;2022-07-22T12:54:41;26.30;61.90
32107;DHT22;18622;51.998;10.440;2022-07-22T12:57:09;26.50;61.50
32107;DHT22;18622;51.998;10.440;2022-07-22T12:59:37;26.60;61.30
32107;DHT22;18622;51.998;10.440;2022-07-22T13:02:05;26.80;60.80
32107;DHT22;18622;51.998;10.440;2022-07-22T13:04:32;27.00;60.30
32107;DHT22;18622;51.998;10.440;2022-07-22T13:07:00;27.00;60.00
32107;DHT22;18622;51.998;10.440;2022-07-22T13:09:28;27.00;60.40
32107;DHT22;18622;51.998;10.440;2022-07-22T13:11:56;27.00;60.40
32107;DHT22;18622;51.998;10.440;2022-07-22T13:14:24;27.00;60.10
32107;DHT22;18622;51.998;10.440;2022-07-22T13:16:52;27.00;59.90
32107;DHT22;18622;51.998;10.440;2022-07-22T13:19:19;27.20;59.10
32107;DHT22;18622;51.998;10.440;2022-07-22T13:21:47;27.20;59.80
32107;DHT22;18622;51.998;10.440;2022-07-22T13:24:15;27.30;59.10
32107;DHT22;18622;51.998;10.440;2022-07-22T13:26:43;27.00;58.50
32107;DHT22;18622;51.998;10.440;2022-07-22T13:29:11;26.60;59.00
32107;DHT22;18622;51.998;10.440;2022-07-22T13:31:38;26.20;59.60
32107;DHT22;18622;51.998;10.440;2022-07-22T13:34:08;26.00;60.40
32107;DHT22;18622;51.998;10.440;2022-07-22T13:36:36;25.80;61.70
32107;DHT22;18622;51.998;10.440;2022-07-22T13:39:04;25.80;62.00
32107;DHT22;18622;51.998;10.440;2022-07-22T13:41:32;26.10;61.60
32107;DHT22;18622;51.998;10.440;2022-07-22T13:44:00;26.50;61.20
32107;DHT22;18622;51.998;10.440;2022-07-22T13:46:28;26.80;60.90
32107;DHT22;18622;51.998;10.440;2022-07-22T13:48:55;27.10;60.00
32107;DHT22;18622;51.998;10.440;2022-07-22T13:51:26;27.20;60.10
32107;DHT22;18622;51.998;10.440;2022-07-22T13:53:54;27.20;59.00
32107;DHT22;18622;51.998;10.440;2022-07-22T13:56:24;27.20;58.80
32107;DHT22;18622;51.998;10.440;2022-07-22T13:58:52;27.10;58.90
32107;DHT22;18622;51.998;10.440;2022-07-22T14:01:20;26.90;59.20
32107;DHT22;18622;51.998;10.440;2022-07-22T14:03:48;26.60;60.20
32107;DHT22;18622;51.998;10.440;2022-07-22T14:06:16;26.40;60.40
32107;DHT22;18622;51.998;10.440;2022-07-22T14:08:45;26.30;61.00
32107;DHT22;18622;51.998;10.440;2022-07-22T14:11:13;26.10;61.60
32107;DHT22;18622;51.998;10.440;2022-07-22T14:13:41;26.00;61.40
32107;DHT22;18622;51.998;10.440;2022-07-22T14:16:08;25.80;62.10
32107;DHT22;18622;51.998;10.440;2022-07-22T14:18:54;25.60;62.40
32107;DHT22;18622;51.998;10.440;2022-07-22T14:21:22;25.30;62.40
32107;DHT22;18622;51.998;10.440;2022-07-22T14:23:49;25.10;63.30
32107;DHT22;18622;51.998;10.440;2022-07-22T14:26:17;25.10;63.60
32107;DHT22;18622;51.998;10.440;2022-07-22T14:28:45;25.10;63.80
32107;DHT22;18622;51.998;10.440;2022-07-22T14:31:13;25.10;62.60
32107;DHT22;18622;51.998;10.440;2022-07-22T14:33:41;25.00;63.10
32107;DHT22;18622;51.998;10.440;2022-07-22T14:36:09;24.90;63.50
32107;DHT22;18622;51.998;10.440;2022-07-22T14:38:36;24.90;64.20
32107;DHT22;18622;51.998;10.440;2022-07-22T14:41:05;24.90;64.50
32107;DHT22;18622;51.998;10.440;2022-07-22T14:43:34;24.90;64.40
32107;DHT22;18622;51.998;10.440;2022-07-22T14:46:03;24.90;64.30
32107;DHT22;18622;51.998;10.440;2022-07-22T14:48:35;24.90;64.70
32107;DHT22;18622;51.998;10.440;2022-07-22T14:51:03;24.90;64.70
32107;DHT22;18622;51.998;10.440;2022-07-22T14:53:31;25.00;64.50
32107;DHT22;18622;51.998;10.440;2022-07-22T14:55:59;24.90;64.30
32107;DHT22;18622;51.998;10.440;2022-07-22T14:58:27;24.80;64.60
32107;DHT22;18622;51.998;10.440;2022-07-22T15:00:55;24.70;65.00
32107;DHT22;18622;51.998;10.440;2022-07-22T15:03:23;24.50;65.30
32107;DHT22;18622;51.998;10.440;2022-07-22T15:05:50;24.50;65.40
32107;DHT22;18622;51.998;10.440;2022-07-22T15:08:19;24.60;65.10
32107;DHT22;18622;51.998;10.440;2022-07-22T15:10:46;24.70;65.00
32107;DHT22;18622;51.998;10.440;2022-07-22T15:13:14;24.90;64.90
32107;DHT22;18622;51.998;10.440;2022-07-22T15:15:42;25.00;64.10
32107;DHT22;18622;51.998;10.440;2022-07-22T15:18:10;25.00;64.60
32107;DHT22;18622;51.998;10.440;2022-07-22T15:20:38;25.10;64.80
32107;DHT22;18622;51.998;10.440;2022-07-22T15:23:06;25.20;64.70
32107;DHT22;18622;51.998;10.440;2022-07-22T15:25:33;25.30;63.90
32107;DHT22;18622;51.998;10.440;2022-07-22T15:28:01;25.30;63.60
32107;DHT22;18622;51.998;10.440;2022-07-22T15:30:29;25.40;64.10
32107;DHT22;18622;51.998;10.440;2022-07-22T15:32:57;25.40;63.80
32107;DHT22;18622;51.998;10.440;2022-07-22T15:35:25;25.50;63.80
32107;DHT22;18622;51.998;10.440;2022-07-22T15:37:52;25.60;63.20
32107;DHT22;18622;51.998;10.440;2022-07-22T15:40:20;25.70;63.10
32107;DHT22;18622;51.998;10.440;2022-07-22T15:42:48;25.90;63.00
32107;DHT22;18622;51.998;10.440;2022-07-22T15:45:16;26.10;62.10
32107;DHT22;18622;51.998;10.440;2022-07-22T15:47:44;26.30;61.30
32107;DHT22;18622;51.998;10.440;2022-07-22T15:50:12;26.20;61.40
32107;DHT22;18622;51.998;10.440;2022-07-22T15:52:40;26.10;61.70
32107;DHT22;18622;51.998;10.440;2022-07-22T15:55:08;26.00;61.70
32107;DHT22;18622;51.998;10.440;2022-07-22T15:57:36;26.00;61.90
32107;DHT22;18622;51.998;10.440;2022-07-22T16:00:21;25.80;62.30
32107;DHT22;18622;51.998;10.440;2022-07-22T16:02:49;25.60;62.00
32107;DHT22;18622;51.998;10.440;2022-07-22T16:05:17;25.50;62.40
32107;DHT22;18622;51.998;10.440;2022-07-22T16:07:45;25.30;62.80
32107;DHT22;18622;51.998;10.440;2022-07-22T16:10:13;25.20;63.00
32107;DHT22;18622;51.998;10.440;2022-07-22T16:12:41;25.10;63.30
32107;DHT22;18622;51.998;10.440;2022-07-22T16:15:09;25.10;63.30
32107;DHT22;18622;51.998;10.440;2022-07-22T16:17:42;25.10;63.30
32107;DHT22;18622;51.998;10.440;2022-07-22T16:20:09;25.20;63.60
32107;DHT22;18622;51.998;10.440;2022-07-22T16:22:38;25.10;63.20
32107;DHT22;18622;51.998;10.440;2022-07-22T16:25:06;25.10;63.30
32107;DHT22;18622;51.998;10.440;2022-07-22T16:27:34;24.90;63.30
32107;DHT22;18622;51.998;10.440;2022-07-22T16:30:02;24.90;63.70
32107;DHT22;18622;51.998;10.440;2022-07-22T16:32:30;24.80;63.80
32107;DHT22;18622;51.998;10.440;2022-07-22T16:34:57;24.70;63.60
32107;DHT22;18622;51.998;10.440;2022-07-22T16:37:25;24.60;64.50
32107;DHT22;18622;51.998;10.440;2022-07-22T16:39:53;24.60;64.20
32107;DHT22;18622;51.998;10.440;2022-07-22T16:42:21;24.60;64.10
32107;DHT22;18622;51.998;10.440;2022-07-22T16:44:49;24.60;65.00
32107;DHT22;18622;51.998;10.440;2022-07-22T16:47:17;24.50;64.80
32107;DHT22;18622;51.998;10.440;2022-07-22T16:49:44;24.40;63.90
32107;DHT22;18622;51.998;10.440;2022-07-22T16:52:12;24.30;64.30
32107;DHT22;18622;51.998;10.440;2022-07-22T16:54:40;24.10;64.90
32107;DHT22;18622;51.998;10.440;2022-07-22T16:57:08;24.00;65.80
32107;DHT22;18622;51.998;10.440;2022-07-22T16:59:36;24.00;65.90
32107;DHT22;18622;51.998;10.440;2022-07-22T17:02:03;24.00;65.90
32107;DHT22;18622;51.998;10.440;2022-07-22T17:04:31;24.10;65.50
32107;DHT22;18622;51.998;10.440;2022-07-22T17:06:59;24.30;65.80
32107;DHT22;18622;51.998;10.440;2022-07-22T17:09:27;24.50;65.90
32107;DHT22;18622;51.998;10.440;2022-07-22T17:11:55;24.60;64.70
32107;DHT22;18622;51.998;10.440;2022-07-22T17:14:22;24.80;64.80
32107;DHT22;18622;51.998;10.440;2022-07-22T17:16:50;25.10;64.30
32107;DHT22;18622;51.998;10.440;2022-07-22T17:19:18;25.40;63.40
32107;DHT22;18622;51.998;10.440;2022-07-22T17:21:46;25.70;62.20
32107;DHT22;18622;51.998;10.440;2022-07-22T17:24:14;25.70;61.80
32107;DHT22;18622;51.998;10.440;2022-07-22T17:26:41;25.80;61.90
32107;DHT22;18622;51.998;10.440;2022-07-22T17:29:09;25.70;61.50
32107;DHT22;18622;51.998;10.440;2022-07-22T17:31:37;25.60;61.60
32107;DHT22;18622;51.998;10.440;2022-07-22T17:34:05;25.50;61.70
32107;DHT22;18622;51.998;10.440;2022-07-22T17:36:33;25.50;62.40
32107;DHT22;18622;51.998;10.440;2022-07-22T17:39:01;25.40;62.30
32107;DHT22;18622;51.998;10.440;2022-07-22T17:41:28;25.30;62.50
32107;DHT22;18622;51.998;10.440;2022-07-22T17:43:56;25.20;62.70
32107;DHT22;18622;51.998;10.440;2022-07-22T17:46:24;25.10;63.00
32107;DHT22;18622;51.998;10.440;2022-07-22T17:48:52;25.00;63.00
32107;DHT22;18622;51.998;10.440;2022-07-22T17:51:20;24.90;63.30
32107;DHT22;18622;51.998;10.440;2022-07-22T17:53:48;24.80;63.80
32107;DHT22;18622;51.998;10.440;2022-07-22T17:56:16;24.70;63.80
32107;DHT22;18622;51.998;10.440;2022-07-22T17:58:43;24.50;64.10
32107;DHT22;18622;51.998;10.440;2022-07-22T18:01:11;24.40;64.60
32107;DHT22;18622;51.998;10.440;2022-07-22T18:03:39;24.20;64.70
32107;DHT22;18622;51.998;10.440;2022-07-22T18:06:07;24.10;65.20
32107;DHT22;18622;51.998;10.440;2022-07-22T18:08:35;23.90;65.60
32107;DHT22;18622;51.998;10.440;2022-07-22T18:11:03;23.70;65.70
32107;DHT22;18622;51.998;10.440;2022-07-22T18:13:32;23.50;66.00
32107;DHT22;18622;51.998;10.440;2022-07-22T18:16:00;23.40;66.40
32107;DHT22;18622;51.998;10.440;2022-07-22T18:18:28;23.20;66.70
32107;DHT22;18622;51.998;10.440;2022-07-22T18:20:56;23.00;67.10
32107;DHT22;18622;51.998;10.440;2022-07-22T18:23:24;22.90;67.50
32107;DHT22;18622;51.998;10.440;2022-07-22T18:25:51;22.70;67.80
32107;DHT22;18622;51.998;10.440;2022-07-22T18:28:20;22.50;68.20
32107;DHT22;18622;51.998;10.440;2022-07-22T18:30:48;22.20;68.60
32107;DHT22;18622;51.998;10.440;2022-07-22T18:33:16;22.10;69.20
32107;DHT22;18622;51.998;10.440;2022-07-22T18:35:44;21.90;70.10
32107;DHT22;18622;51.998;10.440;2022-07-22T18:38:12;21.80;70.30
32107;DHT22;18622;51.998;10.440;2022-07-22T18:40:40;21.60;70.80
32107;DHT22;18622;51.998;10.440;2022-07-22T18:43:07;21.50;71.00
32107;DHT22;18622;51.998;10.440;2022-07-22T18:45:35;21.30;71.50
32107;DHT22;18622;51.998;10.440;2022-07-22T18:48:03;21.20;72.00
32107;DHT22;18622;51.998;10.440;2022-07-22T18:50:31;21.00;72.40
32107;DHT22;18622;51.998;10.440;2022-07-22T18:53:00;20.90;72.80
32107;DHT22;18622;51.998;10.440;2022-07-22T18:55:28;20.80;73.40
32107;DHT22;18622;51.998;10.440;2022-07-22T18:57:56;20.60;73.70
32107;DHT22;18622;51.998;10.440;2022-07-22T19:00:24;20.50;74.00
32107;DHT22;18622;51.998;10.440;2022-07-22T19:02:52;20.40;74.50
32107;DHT22;18622;51.998;10.440;2022-07-22T19:05:19;20.30;74.90
32107;DHT22;18622;51.998;10.440;2022-07-22T19:07:47;20.20;75.20
32107;DHT22;18622;51.998;10.440;2022-07-22T19:10:17;20.00;75.80
32107;DHT22;18622;51.998;10.440;2022-07-22T19:12:45;19.90;76.30
32107;DHT22;18622;51.998;10.440;2022-07-22T19:15:13;19.80;76.80
32107;DHT22;18622;51.998;10.440;2022-07-22T19:17:41;19.70;77.20
32107;DHT22;18622;51.998;10.440;2022-07-22T19:20:10;19.60;77.60
32107;DHT22;18622;51.998;10.440;2022-07-22T19:22:38;19.50;77.80
32107;DHT22;18622;51.998;10.440;2022-07-22T19:25:07;19.40;78.10
32107;DHT22;18622;51.998;10.440;2022-07-22T19:27:35;19.30;78.60
32107;DHT22;18622;51.998;10.440;2022-07-22T19:30:03;19.30;79.00
32107;DHT22;18622;51.998;10.440;2022-07-22T19:32:32;19.10;79.20
32107;DHT22;18622;51.998;10.440;2022-07-22T19:35:00;19.00;79.60
32107;DHT22;18622;51.998;10.440;2022-07-22T19:37:28;18.90;80.30
32107;DHT22;18622;51.998;10.440;2022-07-22T19:39:55;18.90;80.80
32107;DHT22;18622;51.998;10.440;2022-07-22T19:42:23;18.70;80.90
32107;DHT22;18622;51.998;10.440;2022-07-22T19:44:51;18.60;81.30
32107;DHT22;18622;51.998;10.440;2022-07-22T19:47:19;18.60;81.60
32107;DHT22;18622;51.998;10.440;2022-07-22T19:49:47;18.50;82.10
32107;DHT22;18622;51.998;10.440;2022-07-22T19:52:15;18.40;82.20
32107;DHT22;18622;51.998;10.440;2022-07-22T19:54:43;18.30;82.90
32107;DHT22;18622;51.998;10.440;2022-07-22T19:57:11;18.20;83.30
32107;DHT22;18622;51.998;10.440;2022-07-22T19:59:38;18.20;83.90
32107;DHT22;18622;51.998;10.440;2022-07-22T20:02:06;18.10;84.10
32107;DHT22;18622;51.998;10.440;2022-07-22T20:04:34;18.00;84.70
32107;DHT22;18622;51.998;10.440;2022-07-22T20:07:02;18.00;84.80
32107;DHT22;18622;51.998;10.440;2022-07-22T20:09:30;18.00;85.30
32107;DHT22;18622;51.998;10.440;2022-07-22T20:11:58;17.90;85.40
32107;DHT22;18622;51.998;10.440;2022-07-22T20:14:25;17.90;85.60
32107;DHT22;18622;51.998;10.440;2022-07-22T20:16:53;17.80;85.70
32107;DHT22;18622;51.998;10.440;2022-07-22T20:19:21;17.70;86.20
32107;DHT22;18622;51.998;10.440;2022-07-22T20:21:49;17.70;86.80
32107;DHT22;18622;51.998;10.440;2022-07-22T20:24:17;17.70;87.20
32107;DHT22;18622;51.998;10.440;2022-07-22T20:26:44;17.70;87.20
32107;DHT22;18622;51.998;10.440;2022-07-22T20:29:12;17.70;87.60
32107;DHT22;18622;51.998;10.440;2022-07-22T20:31:40;17.70;87.80
32107;DHT22;18622;51.998;10.440;2022-07-22T20:34:08;17.70;88.00
32107;DHT22;18622;51.998;10.440;2022-07-22T20:36:36;17.70;88.20
32107;DHT22;18622;51.998;10.440;2022-07-22T20:39:03;17.70;88.30
32107;DHT22;18622;51.998;10.440;2022-07-22T20:41:31;17.80;88.40
32107;DHT22;18622;51.998;10.440;2022-07-22T20:43:59;17.90;88.60
32107;DHT22;18622;51.998;10.440;2022-07-22T20:46:27;17.90;88.50
32107;DHT22;18622;51.998;10.440;2022-07-22T20:48:54;17.90;88.70
32107;DHT22;18622;51.998;10.440;2022-07-22T20:51:22;17.90;88.80
32107;DHT22;18622;51.998;10.440;2022-07-22T20:53:50;17.90;89.00
32107;DHT22;18622;51.998;10.440;2022-07-22T20:56:18;17.90;89.10
32107;DHT22;18622;51.998;10.440;2022-07-22T20:58:46;18.00;89.10
32107;DHT22;18622;51.998;10.440;2022-07-22T21:01:14;18.00;89.10
32107;DHT22;18622;51.998;10.440;2022-07-22T21:03:42;18.10;89.20
32107;DHT22;18622;51.998;10.440;2022-07-22T21:06:09;18.10;89.10
32107;DHT22;18622;51.998;10.440;2022-07-22T21:08:37;18.10;89.10
32107;DHT22;18622;51.998;10.440;2022-07-22T21:11:05;18.20;89.20
32107;DHT22;18622;51.998;10.440;2022-07-22T21:13:33;18.20;89.10
32107;DHT22;18622;51.998;10.440;2022-07-22T21:16:01;18.20;89.00
32107;DHT22;18622;51.998;10.440;2022-07-22T21:18:29;18.20;89.10
32107;DHT22;18622;51.998;10.440;2022-07-22T21:20:57;18.30;89.10
32107;DHT22;18622;51.998;10.440;2022-07-22T21:23:25;18.30;89.00
32107;DHT22;18622;51.998;10.440;2022-07-22T21:25:53;18.30;89.00
32107;DHT22;18622;51.998;10.440;2022-07-22T21:28:20;18.30;89.00
32107;DHT22;18622;51.998;10.440;2022-07-22T21:30:48;18.30;89.10
32107;DHT22;18622;51.998;10.440;2022-07-22T21:33:16;18.30;89.10
32107;DHT22;18622;51.998;10.440;2022-07-22T21:35:44;18.30;89.10
32107;DHT22;18622;51.998;10.440;2022-07-22T21:38:12;18.30;89.00
32107;DHT22;18622;51.998;10.440;2022-07-22T21:40:40;18.30;89.00
32107;DHT22;18622;51.998;10.440;2022-07-22T21:43:07;18.20;88.90
